Time;durP1;ratioP1;P1;durP2;ratioP2;P2;SDS_P1;SDS_P2;PMS_P1;PMS_P2;Temp;Humidity;BMP_temperature;BMP_pressure;BME280_temperature;BME280_humidity;BME280_pressure;Samples;Min_cycle;Max_cycle;Signal;HPM_P1;HPM_P2
2024/04/07 00:01:40;;;;;;;2.55;1.25;;;13.40;99.90;;;;;;5078801;28;20040;-71
2024/04/07 00:04:06;;;;;;;1.33;1.23;;;;;;;;;;5079886;28;20036;-71
2024/04/07 00:06:32;;;;;;;4.63;1.17;;;;;;;;;;5080033;28;20043;-71
2024/04/07 00:09:01;;;;;;;1.77;1.40;;;13.30;99.90;;;;;;5079695;28;20104;-71
2024/04/07 00:11:29;;;;;;;3.95;1.75;;;13.40;99.90;;;;;;5079913;28;20083;-71
2024/04/07 00:13:54;;;;;;;3.17;1.77;;;13.50;99.90;;;;;;5080261;28;20074;-71
2024/04/07 00:16:20;;;;;;;3.22;1.50;;;13.40;99.90;;;;;;5079704;28;20024;-71
2024/04/07 00:18:47;;;;;;;3.45;1.50;;;13.50;99.90;;;;;;5079899;28;20289;-71
2024/04/07 00:21:12;;;;;;;2.85;1.27;;;13.40;99.90;;;;;;5079635;28;20317;-71
2024/04/07 00:23:38;;;;;;;4.53;1.63;;;13.60;99.90;;;;;;5079835;28;20074;-71
2024/04/07 00:26:04;;;;;;;2.97;1.45;;;;;;;;;;5079512;28;20052;-71
2024/04/07 00:28:30;;;;;;;3.88;1.80;;;13.20;99.90;;;;;;5085898;28;20078;-71
2024/04/07 00:30:56;;;;;;;2.35;1.50;;;;;;;;;;5080134;28;20044;-71
2024/04/07 00:33:22;;;;;;;1.60;1.38;;;13.20;99.90;;;;;;5079654;28;20032;-71
2024/04/07 00:36:01;;;;;;;2.25;1.63;;;12.70;99.90;;;;;;5079475;28;20139;-71
2024/04/07 00:38:28;;;;;;;1.30;1.17;;;13.20;99.90;;;;;;5079533;28;20074;-71
2024/04/07 00:40:56;;;;;;;2.65;1.15;;;13.20;99.90;;;;;;5079318;28;20040;-71
2024/04/07 00:43:23;;;;;;;1.40;1.30;;;13.20;99.90;;;;;;5079302;28;20039;-71
2024/04/07 00:45:49;;;;;;;3.30;1.30;;;13.20;99.90;;;;;;5079936;28;20036;-71
2024/04/07 00:48:17;;;;;;;2.22;1.30;;;13.20;99.90;;;;;;5079185;28;20036;-71
2024/04/07 00:50:49;;;;;;;4.97;1.52;;;13.10;99.90;;;;;;5079289;28;20025;-71
2024/04/07 00:53:16;;;;;;;3.13;1.42;;;12.90;99.90;;;;;;5079141;28;20052;-71
2024/04/07 00:55:43;;;;;;;3.22;1.90;;;13.00;99.90;;;;;;5079244;28;20047;-71
2024/04/07 00:58:13;;;;;;;3.72;1.83;;;12.80;99.90;;;;;;5079060;28;20044;-71
2024/04/07 01:00:42;;;;;;;4.80;2.17;;;12.70;99.90;;;;;;5079263;28;20354;-71
2024/04/07 01:03:08;;;;;;;6.82;2.33;;;12.70;99.90;;;;;;5079644;28;20032;-72
2024/04/07 01:05:47;;;;;;;3.75;2.03;;;12.60;99.90;;;;;;5079235;28;20158;-71
2024/04/07 01:08:14;;;;;;;3.67;2.30;;;12.60;99.90;;;;;;5079337;28;20032;-72
2024/04/07 01:10:41;;;;;;;4.55;1.80;;;12.50;99.90;;;;;;5083414;28;20059;-70
2024/04/07 01:13:07;;;;;;;6.85;2.13;;;12.50;99.90;;;;;;5083500;28;20228;-70
2024/04/07 01:15:37;;;;;;;3.00;2.03;;;12.30;99.90;;;;;;5083115;28;20032;-70
2024/04/07 01:18:03;;;;;;;3.47;1.90;;;12.50;99.90;;;;;;5083244;28;20051;-70
2024/04/07 01:20:30;;;;;;;3.45;2.10;;;12.40;99.90;;;;;;5083974;28;20107;-70
2024/04/07 01:22:57;;;;;;;2.75;1.90;;;;;;;;;;5082928;28;20032;-70
2024/04/07 01:25:23;;;;;;;4.30;2.22;;;;;;;;;;5082847;28;20443;-70
2024/04/07 01:28:01;;;;;;;5.47;2.08;;;12.40;99.90;;;;;;5083222;28;20068;-70
2024/04/07 01:30:27;;;;;;;2.70;2.05;;;12.40;99.90;;;;;;5083176;28;20032;-70
2024/04/07 01:32:53;;;;;;;3.55;1.95;;;;;;;;;;5082877;28;20091;-70
2024/04/07 01:35:20;;;;;;;5.00;2.25;;;;;;;;;;5082817;28;20177;-70
2024/04/07 01:37:45;;;;;;;5.15;2.20;;;12.50;99.90;;;;;;5083368;28;20051;-71
2024/04/07 01:40:11;;;;;;;6.22;2.40;;;12.60;99.90;;;;;;5082498;28;20112;-70
2024/04/07 01:42:38;;;;;;;6.47;2.60;;;12.30;99.90;;;;;;5082967;28;20295;-70
2024/04/07 01:45:05;;;;;;;4.72;2.50;;;12.50;99.90;;;;;;5082491;28;20039;-70
2024/04/07 01:47:31;;;;;;;4.75;2.63;;;12.40;99.90;;;;;;5082833;28;20341;-70
2024/04/07 01:49:57;;;;;;;4.47;2.50;;;12.60;99.90;;;;;;5082478;28;20336;-70
2024/04/07 01:52:23;;;;;;;6.40;2.72;;;;;;;;;;5082684;28;20358;-71
2024/04/07 01:54:48;;;;;;;4.93;2.58;;;12.80;99.90;;;;;;5083267;28;20033;-71
2024/04/07 01:57:14;;;;;;;4.97;2.00;;;12.70;99.90;;;;;;5082495;28;20673;-71
2024/04/07 01:59:40;;;;;;;2.45;1.88;;;;;;;;;;5088727;28;20256;-70
2024/04/07 02:02:07;;;;;;;2.72;1.80;;;;;;;;;;5088611;28;20100;-70
2024/04/07 02:04:33;;;;;;;5.45;2.33;;;;;;;;;;5081079;28;20040;-71
2024/04/07 02:06:59;;;;;;;5.55;2.58;;;;;;;;;;5082169;28;20336;-70
2024/04/07 02:09:25;;;;;;;4.20;2.42;;;;;;;;;;5082245;28;20036;-71
2024/04/07 02:11:51;;;;;;;5.65;2.40;;;13.20;99.90;;;;;;5082747;28;20207;-71
2024/04/07 02:14:17;;;;;;;4.45;2.38;;;13.20;99.90;;;;;;5082050;28;20355;-69
2024/04/07 02:16:43;;;;;;;3.65;2.33;;;;;;;;;;5067867;28;20029;-69
2024/04/07 02:19:11;;;;;;;4.35;2.47;;;;;;;;;;5080020;28;20067;-71
2024/04/07 02:21:37;;;;;;;4.00;1.90;;;;;;;;;;5081951;28;20032;-71
2024/04/07 02:24:04;;;;;;;3.17;2.60;;;;;;;;;;5081668;28;20320;-72
2024/04/07 02:26:30;;;;;;;3.22;2.35;;;;;;;;;;5081967;28;20040;-72
2024/04/07 02:28:57;;;;;;;4.13;2.38;;;;;;;;;;5082247;28;20036;-72
2024/04/07 02:31:23;;;;;;;3.97;2.40;;;13.70;99.90;;;;;;5081983;28;20035;-72
2024/04/07 02:33:49;;;;;;;5.15;2.60;;;;;;;;;;5081898;28;20025;-72
2024/04/07 02:36:16;;;;;;;6.35;2.83;;;13.90;99.90;;;;;;5081443;28;20074;-72
2024/04/07 02:38:42;;;;;;;4.85;2.95;;;14.00;99.90;;;;;;5081462;28;20063;-72
2024/04/07 02:41:08;;;;;;;4.65;2.45;;;14.00;99.90;;;;;;5081551;28;20048;-72
2024/04/07 02:43:34;;;;;;;7.28;3.03;;;;;;;;;;5081564;28;20073;-72
2024/04/07 02:48:45;;;;;;;3.85;3.15;;;14.20;99.90;;;;;;5081440;28;20093;-73
2024/04/07 02:51:11;;;;;;;5.28;3.03;;;;;;;;;;5081349;28;20036;-73
2024/04/07 02:53:39;;;;;;;3.65;2.70;;;;;;;;;;5081432;28;20036;-73
2024/04/07 02:56:05;;;;;;;3.33;2.47;;;;;;;;;;5079961;28;20036;-73
2024/04/07 02:58:31;;;;;;;6.18;2.67;;;;;;;;;;5081373;28;20099;-73
2024/04/07 03:01:06;;;;;;;3.88;2.25;;;14.20;99.90;;;;;;5081067;28;20035;-74
2024/04/07 03:03:33;;;;;;;4.60;3.40;;;14.00;99.90;;;;;;5080636;28;20032;-73
2024/04/07 03:06:09;;;;;;;4.30;2.67;;;14.10;99.90;;;;;;5080936;28;20017;-73
2024/04/07 03:08:37;;;;;;;6.07;3.05;;;14.10;99.90;;;;;;5081138;28;20036;-73
2024/04/07 03:11:05;;;;;;;4.38;2.88;;;12.20;99.90;;;;;;5080907;28;20099;-72
2024/04/07 03:13:32;;;;;;;8.40;3.47;;;;;;;;;;5080950;28;20177;-72
2024/04/07 03:15:58;;;;;;;6.05;3.03;;;14.00;99.90;;;;;;5080521;28;20273;-72
2024/04/07 03:18:24;;;;;;;5.53;3.28;;;14.00;99.90;;;;;;5082809;28;20043;-72
2024/04/07 03:20:49;;;;;;;4.32;2.60;;;14.10;99.90;;;;;;5081320;28;20036;-72
2024/04/07 03:23:16;;;;;;;4.53;2.95;;;;;;;;;;5080599;28;20043;-71
2024/04/07 03:25:42;;;;;;;6.55;3.33;;;;;;;;;;5080399;28;20058;-71
2024/04/07 03:28:08;;;;;;;4.45;3.22;;;14.40;99.90;;;;;;5080510;28;20039;-71
2024/04/07 03:30:35;;;;;;;8.02;3.28;;;14.40;99.90;;;;;;5080273;28;20040;-72
2024/04/07 03:33:02;;;;;;;4.28;2.88;;;14.40;99.90;;;;;;5079741;28;20032;-71
2024/04/07 03:35:29;;;;;;;3.38;2.60;;;14.40;99.90;;;;;;5080565;28;20028;-71
2024/04/07 03:37:55;;;;;;;7.45;2.95;;;;;;;;;;5080849;28;20044;-71
2024/04/07 03:40:22;;;;;;;3.45;2.70;;;14.30;99.90;;;;;;5080484;28;20032;-71
2024/04/07 03:42:52;;;;;;;7.15;3.03;;;14.10;99.90;;;;;;5079171;28;20032;-70
2024/04/07 03:45:18;;;;;;;4.78;2.53;;;14.00;99.90;;;;;;5080345;28;20036;-71
2024/04/07 03:47:44;;;;;;;2.88;2.58;;;13.90;99.90;;;;;;5080424;28;20025;-70
2024/04/07 03:50:10;;;;;;;4.60;2.63;;;13.90;99.90;;;;;;5080072;28;20082;-72
2024/04/07 03:52:36;;;;;;;5.55;2.75;;;;;;;;;;5079744;28;20032;-72
2024/04/07 03:55:03;;;;;;;4.88;2.90;;;13.80;99.90;;;;;;5079697;28;20044;-72
2024/04/07 03:57:30;;;;;;;4.70;2.90;;;14.10;99.90;;;;;;5079843;28;20040;-72
2024/04/07 03:59:56;;;;;;;6.30;3.60;;;;;;;;;;5078608;28;20103;-72
2024/04/07 04:02:29;;;;;;;3.28;2.63;;;13.70;99.90;;;;;;5079938;28;20033;-72
2024/04/07 04:05:04;;;;;;;7.75;3.30;;;13.80;99.90;;;;;;5079852;28;20056;-72
2024/04/07 04:07:31;;;;;;;3.97;3.10;;;13.70;99.90;;;;;;5079912;28;20209;-72
2024/04/07 04:09:59;;;;;;;6.28;3.10;;;13.70;99.90;;;;;;5080339;28;20090;-73
2024/04/07 04:12:26;;;;;;;5.25;3.05;;;13.60;99.90;;;;;;5078523;28;20421;-72
2024/04/07 04:14:53;;;;;;;6.05;2.75;;;13.60;99.90;;;;;;5079674;28;20107;-72
2024/04/07 04:17:19;;;;;;;6.32;2.90;;;13.60;99.90;;;;;;5078209;28;20043;-72
2024/04/07 04:19:45;;;;;;;3.97;2.45;;;;;;;;;;5079646;28;20070;-72
2024/04/07 04:22:12;;;;;;;3.80;2.58;;;;;;;;;;5079119;28;20094;-72
2024/04/07 04:24:39;;;;;;;4.00;2.63;;;;;;;;;;5078218;28;20128;-72
2024/04/07 04:27:05;;;;;;;4.93;2.15;;;;;;;;;;5083251;28;20048;-71
2024/04/07 04:29:37;;;;;;;3.50;2.15;;;13.90;99.90;;;;;;5079586;28;20332;-71
2024/04/07 04:32:06;;;;;;;3.75;2.40;;;;;;;;;;5079699;28;20056;-70
2024/04/07 04:34:32;;;;;;;5.38;2.47;;;13.80;99.90;;;;;;5079504;28;20037;-70
2024/04/07 04:36:58;;;;;;;4.68;2.00;;;13.80;99.90;;;;;;5087527;28;20036;-71
2024/04/07 04:39:24;;;;;;;3.92;2.55;;;14.10;99.90;;;;;;5079614;28;20074;-70
2024/04/07 04:41:50;;;;;;;4.45;2.20;;;14.00;99.90;;;;;;5079541;28;20035;-70
2024/04/07 04:44:18;;;;;;;4.43;2.15;;;14.10;99.90;;;;;;5079715;28;20091;-71
2024/04/07 04:46:45;;;;;;;5.80;2.50;;;14.10;99.90;;;;;;5079427;28;20064;-72
2024/04/07 04:49:12;;;;;;;3.78;1.77;;;14.10;99.90;;;;;;5079217;28;20098;-73
2024/04/07 04:51:37;;;;;;;2.90;1.73;;;14.20;99.90;;;;;;5079323;28;20036;-72
2024/04/07 04:54:04;;;;;;;3.58;1.67;;;14.40;99.90;;;;;;5079421;28;20038;-72
2024/04/07 04:56:30;;;;;;;4.93;2.17;;;14.30;99.90;;;;;;5079156;28;20051;-72
2024/04/07 04:58:57;;;;;;;3.35;1.75;;;14.40;99.90;;;;;;5085240;28;20028;-71
2024/04/07 05:01:24;;;;;;;3.05;1.77;;;14.60;99.90;;;;;;5083488;28;20036;-72
2024/04/07 05:03:50;;;;;;;5.60;1.92;;;;;;;;;;5079392;28;20060;-72
2024/04/07 05:06:17;;;;;;;3.20;2.00;;;14.70;99.90;;;;;;5081053;28;20431;-71
2024/04/07 05:08:43;;;;;;;3.20;1.90;;;14.90;99.90;;;;;;5084142;28;20107;-70
2024/04/07 05:11:10;;;;;;;4.40;2.50;;;14.90;99.90;;;;;;5078963;28;20096;-71
2024/04/07 05:13:36;;;;;;;4.53;1.65;;;15.00;99.90;;;;;;5077634;28;20243;-71
2024/04/07 05:16:03;;;;;;;3.83;1.80;;;15.20;99.90;;;;;;5080630;28;20020;-72
2024/04/07 05:18:29;;;;;;;4.78;2.03;;;14.90;99.90;;;;;;5079658;28;20052;-72
2024/04/07 05:20:56;;;;;;;3.95;2.13;;;15.20;99.90;;;;;;5079161;28;20036;-71
2024/04/07 05:23:24;;;;;;;4.88;2.30;;;15.00;99.90;;;;;;5079109;28;20040;-72
2024/04/07 05:25:53;;;;;;;8.68;2.53;;;15.30;99.90;;;;;;5078766;28;20082;-72
2024/04/07 05:28:19;;;;;;;2.75;1.95;;;15.40;99.90;;;;;;5087138;28;20036;-72
2024/04/07 05:30:44;;;;;;;3.90;1.88;;;15.60;99.90;;;;;;5079417;28;20374;-72
2024/04/07 05:33:10;;;;;;;3.50;2.38;;;;;;;;;;5077624;28;20036;-72
2024/04/07 05:35:52;;;;;;;6.10;2.03;;;15.60;99.90;;;;;;5079527;28;20036;-72
2024/04/07 05:38:18;;;;;;;3.33;2.38;;;15.90;99.90;;;;;;5078045;28;20017;-72
2024/04/07 05:40:55;;;;;;;3.03;1.65;;;15.80;99.90;;;;;;5078749;28;20085;-72
2024/04/07 05:43:21;;;;;;;3.40;2.03;;;;;;;;;;5078852;28;20040;-72
2024/04/07 05:45:47;;;;;;;4.15;1.80;;;;;;;;;;5078786;28;20036;-72
2024/04/07 05:48:12;;;;;;;4.95;3.00;;;16.10;99.90;;;;;;5078692;28;20324;-72
2024/04/07 05:50:38;;;;;;;3.78;1.75;;;;;;;;;;5078646;28;20031;-72
2024/04/07 05:53:05;;;;;;;5.63;2.70;;;;;;;;;;5079160;28;20403;-72
2024/04/07 05:55:34;;;;;;;7.70;2.15;;;16.50;95.10;;;;;;5080786;28;20040;-72
2024/04/07 05:58:00;;;;;;;3.28;1.58;;;;;;;;;;5082148;28;20032;-71
2024/04/07 06:00:25;;;;;;;4.05;1.80;;;16.80;99.90;;;;;;5082220;28;20059;-72
2024/04/07 06:02:51;;;;;;;4.53;2.30;;;16.70;94.00;;;;;;5082149;28;20047;-72
2024/04/07 06:05:17;;;;;;;2.83;1.92;;;;;;;;;;5082014;28;20028;-72
2024/04/07 06:07:43;;;;;;;4.85;1.83;;;;;;;;;;5082174;28;20043;-72
2024/04/07 06:10:09;;;;;;;5.55;2.55;;;;;;;;;;5082615;28;20043;-70
2024/04/07 06:12:35;;;;;;;4.70;2.38;;;17.30;98.70;;;;;;5080863;28;20032;-71
2024/04/07 06:15:01;;;;;;;3.40;2.42;;;17.20;98.10;;;;;;5081743;28;20036;-71
2024/04/07 06:17:27;;;;;;;5.72;2.70;;;17.10;96.90;;;;;;5081990;28;20445;-71
2024/04/07 06:19:53;;;;;;;6.22;2.47;;;;;;;;;;5087336;28;20032;-72
2024/04/07 06:22:19;;;;;;;4.13;2.08;;;;;;;;;;5082191;28;20220;-70
2024/04/07 06:24:47;;;;;;;4.35;2.08;;;17.40;96.30;;;;;;5081825;28;20086;-71
2024/04/07 06:27:13;;;;;;;4.40;2.03;;;17.40;96.30;;;;;;5082446;28;20028;-70
2024/04/07 06:29:38;;;;;;;6.13;3.03;;;17.60;94.40;;;;;;5081847;28;20039;-70
2024/04/07 06:32:05;;;;;;;8.25;2.75;;;17.60;95.60;;;;;;5081820;28;20312;-70
2024/04/07 06:34:31;;;;;;;3.65;2.17;;;;;;;;;;5081634;28;20198;-71
2024/04/07 06:36:57;;;;;;;2.67;1.80;;;;;;;;;;5080159;28;20210;-70
2024/04/07 06:39:23;;;;;;;3.80;1.90;;;;;;;;;;5081651;28;20114;-69
2024/04/07 06:41:49;;;;;;;5.32;2.63;;;17.70;93.50;;;;;;5081914;28;20040;-69
2024/04/07 06:44:14;;;;;;;4.10;2.08;;;17.70;94.50;;;;;;5082003;28;20374;-70
2024/04/07 06:46:40;;;;;;;3.60;1.67;;;17.90;94.50;;;;;;5081404;28;20051;-70
2024/04/07 06:49:06;;;;;;;9.70;2.58;;;;;;;;;;5081339;28;20348;-69
2024/04/07 06:51:32;;;;;;;4.63;2.17;;;;;;;;;;5081445;28;20041;-69
2024/04/07 06:53:58;;;;;;;2.58;1.80;;;18.00;85.40;;;;;;5081244;28;20047;-71
2024/04/07 06:56:24;;;;;;;5.60;2.03;;;18.30;81.40;;;;;;5081305;28;20036;-71
2024/04/07 06:58:50;;;;;;;3.72;1.65;;;18.10;81.60;;;;;;5081252;28;20047;-72
2024/04/07 07:01:16;;;;;;;6.28;2.05;;;18.30;81.30;;;;;;5081898;28;20070;-71
2024/04/07 07:03:42;;;;;;;2.75;1.67;;;18.30;92.70;;;;;;5063294;28;20048;-72
2024/04/07 07:06:11;;;;;;;3.95;1.95;;;18.50;91.40;;;;;;5080483;28;20028;-68
2024/04/07 07:08:37;;;;;;;6.32;1.85;;;18.80;82.60;;;;;;5092444;28;20043;-69
2024/04/07 07:11:03;;;;;;;3.90;2.03;;;;;;;;;;5080758;28;20048;-65
2024/04/07 07:13:30;;;;;;;3.78;2.22;;;18.90;90.40;;;;;;5086261;28;20070;-67
2024/04/07 07:15:56;;;;;;;4.32;1.75;;;19.00;74.90;;;;;;5080932;28;20032;-70
2024/04/07 07:18:23;;;;;;;2.58;1.70;;;19.00;75.60;;;;;;5081437;28;20374;-70
2024/04/07 07:20:49;;;;;;;3.72;2.13;;;19.20;89.30;;;;;;5081036;28;20032;-67
2024/04/07 07:23:15;;;;;;;4.30;2.25;;;19.20;74.30;;;;;;5080652;28;20362;-68
2024/04/07 07:25:42;;;;;;;2.30;1.75;;;19.30;74.30;;;;;;5080509;28;20117;-68
2024/04/07 07:28:09;;;;;;;2.40;1.50;;;;;;;;;;5080548;28;20039;-67
2024/04/07 07:30:35;;;;;;;7.38;2.05;;;19.80;85.70;;;;;;5083707;28;20316;-68
2024/04/07 07:33:03;;;;;;;2.53;1.40;;;19.70;84.30;;;;;;5080411;28;20054;-68
2024/04/07 07:35:29;;;;;;;3.28;1.42;;;20.00;83.70;;;;;;5081023;28;20366;-67
2024/04/07 07:37:55;;;;;;;4.35;1.90;;;;;;;;;;5080106;28;20051;-67
2024/04/07 07:40:21;;;;;;;3.28;1.75;;;20.30;83.00;;;;;;5072238;28;20035;-69
2024/04/07 07:42:47;;;;;;;4.03;1.77;;;20.50;82.60;;;;;;5080125;28;20037;-69
2024/04/07 07:45:13;;;;;;;3.60;2.20;;;20.50;75.50;;;;;;5078739;28;20032;-69
2024/04/07 07:47:39;;;;;;;4.43;2.10;;;;;;;;;;5086257;28;20210;-67
2024/04/07 07:50:06;;;;;;;4.15;2.17;;;20.70;67.10;;;;;;5079909;28;20039;-69
2024/04/07 07:52:32;;;;;;;3.55;1.95;;;22.10;68.30;;;;;;5081850;28;20036;-69
2024/04/07 07:54:57;;;;;;;2.80;1.90;;;20.80;81.50;;;;;;5079992;28;20047;-67
2024/04/07 07:57:24;;;;;;;4.72;2.03;;;20.80;81.10;;;;;;5080124;28;20021;-69
2024/04/07 07:59:50;;;;;;;2.80;2.05;;;20.90;67.30;;;;;;5087171;28;20111;-68
2024/04/07 08:02:16;;;;;;;3.53;1.95;;;21.00;67.00;;;;;;5082594;28;20028;-68
2024/04/07 08:04:42;;;;;;;5.15;1.70;;;21.10;80.40;;;;;;5087501;28;20091;-69
2024/04/07 08:07:07;;;;;;;4.00;2.58;;;21.10;66.30;;;;;;5084838;28;20077;-69
2024/04/07 08:09:33;;;;;;;4.95;2.33;;;21.20;79.90;;;;;;5080392;28;20230;-69
2024/04/07 08:11:59;;;;;;;3.85;2.25;;;21.60;79.80;;;;;;5079597;28;20073;-69
2024/04/07 08:14:25;;;;;;;2.00;1.80;;;21.30;65.50;;;;;;5081957;28;20039;-71
2024/04/07 08:16:51;;;;;;;5.15;2.05;;;21.30;66.00;;;;;;5062083;28;20037;-69
2024/04/07 08:19:17;;;;;;;3.58;2.10;;;21.50;65.50;;;;;;5078682;28;20042;-69
2024/04/07 08:21:43;;;;;;;3.90;1.58;;;;;;;;;;5079469;28;20108;-70
2024/04/07 08:24:10;;;;;;;2.40;1.77;;;21.60;64.30;;;;;;5079127;28;20062;-69
2024/04/07 08:26:36;;;;;;;4.15;2.08;;;21.60;81.00;;;;;;5084464;28;20038;-69
2024/04/07 08:29:01;;;;;;;6.97;1.80;;;21.60;64.50;;;;;;5083319;28;20029;-70
2024/04/07 08:31:28;;;;;;;5.63;2.00;;;21.60;63.80;;;;;;5079313;28;20059;-69
2024/04/07 08:33:53;;;;;;;4.80;2.05;;;21.60;79.40;;;;;;5079318;28;20032;-70
2024/04/07 08:36:19;;;;;;;3.28;1.95;;;21.50;63.10;;;;;;5079183;28;20260;-69
2024/04/07 08:38:45;;;;;;;6.30;2.35;;;21.80;79.40;;;;;;5077915;28;20063;-69
2024/04/07 08:41:14;;;;;;;4.40;1.90;;;21.60;63.00;;;;;;5079368;28;20328;-69
2024/04/07 08:43:40;;;;;;;4.10;1.85;;;22.70;63.80;;;;;;5080219;28;20074;-69
2024/04/07 08:46:13;;;;;;;4.97;2.20;;;21.70;63.50;;;;;;5079484;28;20068;-69
2024/04/07 08:48:41;;;;;;;4.75;2.58;;;21.90;75.60;;;;;;5079146;28;20033;-69
2024/04/07 08:51:10;;;;;;;3.77;2.07;;;22.10;75.10;;;;;;5079464;28;20040;-70
2024/04/07 08:53:40;;;;;;;3.47;2.00;;;22.30;63.30;;;;;;5077833;28;20315;-70
2024/04/07 08:56:08;;;;;;;4.00;1.98;;;22.40;66.40;;;;;;5078156;28;20051;-70
2024/04/07 08:58:44;;;;;;;6.15;2.00;;;22.40;72.80;;;;;;5077820;28;20070;-70
2024/04/07 09:01:17;;;;;;;5.88;2.00;;;22.50;60.50;;;;;;5087165;28;20040;-70
2024/04/07 09:03:43;;;;;;;8.07;2.40;;;22.60;72.20;;;;;;5081893;28;20035;-70
2024/04/07 09:06:09;;;;;;;3.97;2.17;;;22.60;72.60;;;;;;5083321;28;20036;-70
2024/04/07 09:08:35;;;;;;;2.80;2.03;;;22.70;72.50;;;;;;5078364;28;20066;-69
2024/04/07 09:11:01;;;;;;;5.15;1.80;;;22.70;72.10;;;;;;5079253;28;20047;-70
2024/04/07 09:13:27;;;;;;;2.78;1.70;;;22.70;72.30;;;;;;5077825;28;20224;-67
2024/04/07 09:15:53;;;;;;;3.80;2.22;;;;;;;;;;5082865;28;20039;-69
2024/04/07 09:18:20;;;;;;;3.92;1.90;;;23.00;71.50;;;;;;5087331;28;20024;-69
2024/04/07 09:20:46;;;;;;;2.10;1.58;;;22.90;59.80;;;;;;5077794;28;20078;-70
2024/04/07 09:23:12;;;;;;;3.83;1.92;;;23.10;71.10;;;;;;5078934;28;20028;-70
2024/04/07 09:25:38;;;;;;;3.70;2.10;;;23.10;59.30;;;;;;5077652;28;20044;-70
2024/04/07 09:28:04;;;;;;;4.15;1.80;;;23.30;70.80;;;;;;5078871;28;20063;-69
2024/04/07 09:30:30;;;;;;;4.05;2.13;;;23.50;71.00;;;;;;5081382;28;20320;-70
2024/04/07 09:32:57;;;;;;;2.90;1.90;;;;;;;;;;5082169;28;20052;-70
2024/04/07 09:35:22;;;;;;;4.15;2.15;;;23.40;70.10;;;;;;5083025;28;20074;-68
2024/04/07 09:37:48;;;;;;;2.45;1.90;;;23.60;69.30;;;;;;5082838;28;20251;-68
2024/04/07 09:40:14;;;;;;;3.60;2.10;;;23.70;69.10;;;;;;5082831;28;20089;-68
2024/04/07 09:42:40;;;;;;;7.45;2.45;;;23.60;69.00;;;;;;5082734;28;20036;-66
2024/04/07 09:45:10;;;;;;;4.25;2.40;;;23.70;68.60;;;;;;5082652;28;20100;-66
2024/04/07 09:47:38;;;;;;;2.92;1.50;;;23.70;68.60;;;;;;5083783;28;20346;-68
2024/04/07 09:50:07;;;;;;;;;;;23.70;57.30;;;;;;5082682;28;20036;-66
2024/04/07 09:52:42;;;;;;;2.65;2.13;;;23.70;57.40;;;;;;5082744;28;20215;-66
2024/04/07 09:55:11;;;;;;;2.58;1.98;;;23.70;67.70;;;;;;5082701;28;20040;-66
2024/04/07 09:57:37;;;;;;;3.25;1.80;;;23.40;67.70;;;;;;5082428;28;20251;-66
2024/04/07 10:00:10;;;;;;;3.67;1.80;;;23.50;67.00;;;;;;5084636;28;20041;-66
2024/04/07 10:02:40;;;;;;;5.28;2.00;;;23.60;56.30;;;;;;5093097;28;20032;-66
2024/04/07 10:05:06;;;;;;;6.35;2.10;;;23.60;66.90;;;;;;5099923;28;20219;-66
2024/04/07 10:07:37;;;;;;;5.25;1.92;;;23.70;66.90;;;;;;5090405;28;20064;-66
2024/04/07 10:10:04;;;;;;;3.83;2.00;;;24.10;67.10;;;;;;5082134;28;20074;-66
2024/04/07 10:12:31;;;;;;;3.03;2.30;;;24.20;66.70;;;;;;5085111;28;20224;-66
2024/04/07 10:14:58;;;;;;;3.65;2.30;;;24.30;66.10;;;;;;5083899;28;20032;-67
2024/04/07 10:17:31;;;;;;;3.78;2.28;;;24.30;66.60;;;;;;5082160;28;20059;-70
2024/04/07 10:19:58;;;;;;;3.70;2.40;;;24.60;66.50;;;;;;5081986;28;20051;-67
2024/04/07 10:22:26;;;;;;;5.25;2.60;;;24.60;66.20;;;;;;5086373;28;20083;-66
2024/04/07 10:24:53;;;;;;;2.63;1.77;;;24.70;55.90;;;;;;5082517;28;20045;-66
2024/04/07 10:27:24;;;;;;;5.38;2.08;;;24.70;64.80;;;;;;5081978;28;20052;-66
2024/04/07 10:29:54;;;;;;;2.38;1.70;;;25.00;64.90;;;;;;5080913;28;20041;-67
2024/04/07 10:32:33;;;;;;;2.25;1.95;;;25.00;64.80;;;;;;5081356;28;20058;-66
2024/04/07 10:34:59;;;;;;;2.70;1.45;;;25.10;64.60;;;;;;5089555;28;20028;-66
2024/04/07 10:37:25;;;;;;;1.92;1.77;;;;;;;;;;5089868;28;20096;-65
2024/04/07 10:39:51;;;;;;;2.13;1.52;;;25.20;64.80;;;;;;5080829;28;20074;-68
2024/04/07 10:42:17;;;;;;;3.22;1.75;;;25.20;62.60;;;;;;5080335;28;20032;-66
2024/04/07 10:44:43;;;;;;;2.58;2.03;;;25.10;52.40;;;;;;5080637;28;20476;-66
2024/04/07 10:47:10;;;;;;;2.33;1.40;;;25.10;62.20;;;;;;5087702;28;20253;-66
2024/04/07 10:49:37;;;;;;;2.47;1.60;;;25.30;62.20;;;;;;5080295;28;20032;-66
2024/04/07 10:52:03;;;;;;;2.70;1.80;;;25.30;62.30;;;;;;5080801;28;20029;-66
2024/04/07 10:54:33;;;;;;;5.22;2.05;;;25.00;62.00;;;;;;5081373;28;20032;-66
2024/04/07 10:56:58;;;;;;;2.83;1.80;;;25.30;62.50;;;;;;5079487;28;20032;-67
2024/04/07 10:59:24;;;;;;;3.13;1.80;;;25.30;61.90;;;;;;5082577;28;20028;-67
2024/04/07 11:01:50;;;;;;;2.00;1.40;;;25.40;62.20;;;;;;5086687;28;20081;-66
2024/04/07 11:04:16;;;;;;;3.00;1.40;;;25.20;61.90;;;;;;5081732;28;20055;-66
2024/04/07 11:06:42;;;;;;;2.85;1.65;;;25.60;61.70;;;;;;5081168;28;20111;-66
2024/04/07 11:09:08;;;;;;;2.75;1.77;;;25.70;62.10;;;;;;5081184;28;20032;-66
2024/04/07 11:11:33;;;;;;;2.30;1.65;;;26.00;62.00;;;;;;5081193;28;20091;-67
2024/04/07 11:13:59;;;;;;;4.25;1.80;;;26.10;61.70;;;;;;5080905;28;20032;-66
2024/04/07 11:16:25;;;;;;;2.22;1.65;;;26.10;60.70;;;;;;5083170;28;20060;-66
2024/04/07 11:18:50;;;;;;;3.78;1.95;;;26.40;60.50;;;;;;5081071;28;20340;-66
2024/04/07 11:21:17;;;;;;;6.43;2.17;;;26.40;60.60;;;;;;5081057;28;20058;-66
2024/04/07 11:23:43;;;;;;;3.05;2.00;;;26.50;60.40;;;;;;5080857;28;20112;-66
2024/04/07 11:26:11;;;;;;;4.55;2.08;;;26.70;60.00;;;;;;5080681;28;20114;-66
2024/04/07 11:28:40;;;;;;;5.70;1.63;;;26.70;60.10;;;;;;5079648;28;20107;-66
2024/04/07 11:31:08;;;;;;;4.78;2.10;;;26.50;59.80;;;;;;5094271;28;20085;-66
2024/04/07 11:33:34;;;;;;;7.38;1.77;;;26.30;59.20;;;;;;5081375;28;20060;-66
2024/04/07 11:36:02;;;;;;;3.22;2.00;;;26.30;59.50;;;;;;5080663;28;20320;-66
2024/04/07 11:38:29;;;;;;;4.10;2.13;;;26.50;59.50;;;;;;5080595;28;20032;-66
2024/04/07 11:40:55;;;;;;;4.00;1.77;;;26.10;59.30;;;;;;5080781;28;20036;-66
2024/04/07 11:43:21;;;;;;;3.67;1.75;;;26.50;59.40;;;;;;5072444;28;20081;-66
2024/04/07 11:45:47;;;;;;;4.95;2.13;;;26.70;59.40;;;;;;5079295;28;20032;-66
2024/04/07 11:48:14;;;;;;;2.47;1.50;;;26.90;59.90;;;;;;5081905;28;20580;-67
2024/04/07 11:50:40;;;;;;;4.53;1.90;;;26.90;59.30;;;;;;5081322;28;20097;-67
2024/04/07 11:53:07;;;;;;;4.03;1.80;;;26.90;58.50;;;;;;5079802;28;20099;-66
2024/04/07 11:55:33;;;;;;;2.80;1.77;;;26.90;58.40;;;;;;5080362;28;20051;-66
2024/04/07 11:57:59;;;;;;;5.03;1.90;;;27.00;48.90;;;;;;5086446;28;20336;-66
2024/04/07 12:00:24;;;;;;;4.85;1.92;;;26.90;58.50;;;;;;5080303;28;20028;-66
2024/04/07 12:02:51;;;;;;;3.05;1.70;;;27.10;58.70;;;;;;5080224;28;20036;-66
2024/04/07 12:05:17;;;;;;;2.67;1.67;;;27.10;52.20;;;;;;5080602;28;20122;-66
2024/04/07 12:07:43;;;;;;;2.30;1.60;;;27.00;58.90;;;;;;5087376;28;20316;-66
2024/04/07 12:10:12;;;;;;;3.88;1.77;;;27.20;58.80;;;;;;5080090;28;20032;-67
2024/04/07 12:12:38;;;;;;;2.88;1.88;;;27.50;58.50;;;;;;5079874;28;20056;-67
2024/04/07 12:15:04;;;;;;;5.38;1.85;;;27.30;58.20;;;;;;5079684;28;20098;-67
2024/04/07 12:17:30;;;;;;;4.15;1.98;;;;;;;;;;5079786;28;20031;-66
2024/04/07 12:19:56;;;;;;;3.78;2.08;;;27.60;58.70;;;;;;5079770;28;20054;-66
2024/04/07 12:22:24;;;;;;;3.75;2.00;;;27.30;58.60;;;;;;5079941;28;20457;-66
2024/04/07 12:24:50;;;;;;;2.08;1.60;;;26.80;58.10;;;;;;5080265;28;20110;-66
2024/04/07 12:27:16;;;;;;;4.35;1.77;;;27.50;58.20;;;;;;5079626;28;20036;-66
2024/04/07 12:29:43;;;;;;;3.28;1.95;;;27.20;57.20;;;;;;5079704;28;20081;-66
2024/04/07 12:32:08;;;;;;;3.45;1.85;;;27.70;57.60;;;;;;5079523;28;20074;-67
2024/04/07 12:34:35;;;;;;;3.47;1.60;;;27.40;57.20;;;;;;5079723;28;20036;-67
2024/04/07 12:37:01;;;;;;;2.35;1.92;;;27.60;57.00;;;;;;5085532;28;20086;-66
2024/04/07 12:39:28;;;;;;;3.13;1.98;;;27.60;47.80;;;;;;5079540;28;20033;-67
2024/04/07 12:41:53;;;;;;;3.03;1.73;;;27.60;48.30;;;;;;5080146;28;20020;-67
2024/04/07 12:44:19;;;;;;;10.35;2.10;;;27.70;48.10;;;;;;5079440;28;20070;-66
2024/04/07 12:46:45;;;;;;;3.95;1.65;;;27.80;56.80;;;;;;5079451;28;20040;-66
2024/04/07 12:49:13;;;;;;;2.28;1.63;;;27.90;55.90;;;;;;5079393;28;20036;-66
2024/04/07 12:51:40;;;;;;;2.70;1.77;;;27.50;55.30;;;;;;5088245;28;20062;-67
2024/04/07 12:54:06;;;;;;;5.07;2.15;;;27.80;47.20;;;;;;5079497;28;20051;-66
2024/04/07 12:56:32;;;;;;;3.03;1.88;;;28.10;55.20;;;;;;5078229;28;20037;-66
2024/04/07 12:58:58;;;;;;;4.32;1.85;;;28.40;55.80;;;;;;5078641;28;20035;-67
2024/04/07 13:01:24;;;;;;;2.83;1.75;;;28.50;46.40;;;;;;5078198;28;20041;-67
2024/04/07 13:03:50;;;;;;;4.00;1.92;;;29.20;46.00;;;;;;5079285;28;20614;-67
2024/04/07 13:06:16;;;;;;;4.00;1.83;;;30.50;45.10;;;;;;5079201;28;20036;-67
2024/04/07 13:08:41;;;;;;;4.22;2.20;;;35.00;42.90;;;;;;5079230;28;20221;-68